sensor_id;sensor_type;location;lat;lon;timestamp;pressure;altitude;pressure_sealevel;temperature
7830;BMP180;3960;51.86894000;5.39848000;2023-05-14T00:01:48;102022.13;;;13.67
7830;BMP180;3960;51.86894000;5.39848000;2023-05-14T00:04:15;102012.06;;;13.64
7830;BMP180;3960;51.86894000;5.39848000;2023-05-14T00:06:42;102005.47;;;13.58
7830;BMP180;3960;51.86894000;5.39848000;2023-05-14T00:09:07;102012.50;;;13.56
7830;BMP180;3960;51.86894000;5.39848000;2023-05-14T00:11:32;102003.56;;;13.52
7830;BMP180;3960;51.86894000;5.39848000;2023-05-14T00:13:57;101999.28;;;13.47
7830;BMP180;3960;51.86894000;5.39848000;2023-05-14T00:16:23;102005.53;;;13.44
7830;BMP180;3960;51.86894000;5.39848000;2023-05-14T00:18:48;101998.94;;;13.42
7830;BMP180;3960;51.86894000;5.39848000;2023-05-14T00:21:13;101992.38;;;13.36
7830;BMP180;3960;51.86894000;5.39848000;2023-05-14T00:23:39;101994.75;;;13.23
7830;BMP180;3960;51.86894000;5.39848000;2023-05-14T00:26:04;101994.31;;;13.28
7830;BMP180;3960;51.86894000;5.39848000;2023-05-14T00:28:30;101996.69;;;13.23
7830;BMP180;3960;51.86894000;5.39848000;2023-05-14T00:30:55;101986.59;;;13.13
7830;BMP180;3960;51.86894000;5.39848000;2023-05-14T00:33:21;101987.00;;;13.12
7830;BMP180;3960;51.86894000;5.39848000;2023-05-14T00:35:46;101990.91;;;13.11
7830;BMP180;3960;51.86894000;5.39848000;2023-05-14T00:38:11;101978.13;;;13.01
7830;BMP180;3960;51.86894000;5.39848000;2023-05-14T00:40:41;101986.22;;;13.04
7830;BMP180;3960;51.86894000;5.39848000;2023-05-14T00:43:09;101983.53;;;13.04
7830;BMP180;3960;51.86894000;5.39848000;2023-05-14T00:45:35;101985.09;;;13.02
7830;BMP180;3960;51.86894000;5.39848000;2023-05-14T00:48:00;101985.09;;;13.02
7830;BMP180;3960;51.86894000;5.39848000;2023-05-14T00:50:26;101985.47;;;13.00
7830;BMP180;3960;51.86894000;5.39848000;2023-05-14T00:52:52;101983.16;;;12.99
7830;BMP180;3960;51.86894000;5.39848000;2023-05-14T00:55:17;101982.78;;;12.97
7830;BMP180;3960;51.86894000;5.39848000;2023-05-14T00:57:43;101977.34;;;12.93
7830;BMP180;3960;51.86894000;5.39848000;2023-05-14T01:00:09;101983.56;;;12.97
7830;BMP180;3960;51.86894000;5.39848000;2023-05-14T01:02:34;101981.63;;;12.94
7830;BMP180;3960;51.86894000;5.39848000;2023-05-14T01:05:00;101982.00;;;12.96
7830;BMP180;3960;51.86894000;5.39848000;2023-05-14T01:07:35;101978.50;;;12.92
7830;BMP180;3960;51.86894000;5.39848000;2023-05-14T01:10:12;101978.13;;;12.94
7830;BMP180;3960;51.86894000;5.39848000;2023-05-14T01:13:10;101976.94;;;12.91
7830;BMP180;3960;51.86894000;5.39848000;2023-05-14T01:15:38;101974.63;;;12.90
7830;BMP180;3960;51.86894000;5.39848000;2023-05-14T01:18:08;101970.75;;;12.87
7830;BMP180;3960;51.86894000;5.39848000;2023-05-14T01:20:34;101967.63;;;12.85
7830;BMP180;3960;51.86894000;5.39848000;2023-05-14T01:23:00;101973.44;;;12.84
7830;BMP180;3960;51.86894000;5.39848000;2023-05-14T01:25:26;101972.31;;;12.78
7830;BMP180;3960;51.86894000;5.39848000;2023-05-14T01:28:12;101970.34;;;12.75
7830;BMP180;3960;51.86894000;5.39848000;2023-05-14T01:30:48;101962.25;;;12.68
7830;BMP180;3960;51.86894000;5.39848000;2023-05-14T01:33:15;101950.59;;;12.60
7830;BMP180;3960;51.86894000;5.39848000;2023-05-14T01:35:42;101970.00;;;12.66
7830;BMP180;3960;51.86894000;5.39848000;2023-05-14T01:38:10;101963.41;;;12.63
7830;BMP180;3960;51.86894000;5.39848000;2023-05-14T01:40:36;101956.03;;;12.60
7830;BMP180;3960;51.86894000;5.39848000;2023-05-14T01:43:03;101957.19;;;12.56
7830;BMP180;3960;51.86894000;5.39848000;2023-05-14T01:45:29;101956.03;;;12.53
7830;BMP180;3960;51.86894000;5.39848000;2023-05-14T01:47:55;101952.94;;;12.48
7830;BMP180;3960;51.86894000;5.39848000;2023-05-14T01:50:20;101946.31;;;12.42
7830;BMP180;3960;51.86894000;5.39848000;2023-05-14T01:52:45;101959.16;;;12.45
7830;BMP180;3960;51.86894000;5.39848000;2023-05-14T01:55:12;101970.41;;;12.47
7830;BMP180;3960;51.86894000;5.39848000;2023-05-14T01:57:37;101966.53;;;12.44
7830;BMP180;3960;51.86894000;5.39848000;2023-05-14T02:00:04;101954.50;;;12.35
7830;BMP180;3960;51.86894000;5.39848000;2023-05-14T02:02:29;101964.59;;;12.38
7830;BMP180;3960;51.86894000;5.39848000;2023-05-14T02:04:55;101949.84;;;12.32
7830;BMP180;3960;51.86894000;5.39848000;2023-05-14T02:07:20;101959.94;;;12.32
7830;BMP180;3960;51.86894000;5.39848000;2023-05-14T02:09:45;101961.09;;;12.27
7830;BMP180;3960;51.86894000;5.39848000;2023-05-14T02:12:11;101936.25;;;12.11
7830;BMP180;3960;51.86894000;5.39848000;2023-05-14T02:14:36;101946.38;;;12.11
7830;BMP180;3960;51.86894000;5.39848000;2023-05-14T02:17:02;101965.75;;;12.16
7830;BMP180;3960;51.86894000;5.39848000;2023-05-14T02:19:28;101966.94;;;12.12
7830;BMP180;3960;51.86894000;5.39848000;2023-05-14T02:21:53;101954.50;;;12.04
7830;BMP180;3960;51.86894000;5.39848000;2023-05-14T02:24:19;101954.50;;;12.04
7830;BMP180;3960;51.86894000;5.39848000;2023-05-14T02:26:44;101954.91;;;12.02
7830;BMP180;3960;51.86894000;5.39848000;2023-05-14T02:29:09;101955.66;;;11.99
7830;BMP180;3960;51.86894000;5.39848000;2023-05-14T02:31:35;101958.38;;;11.96
7830;BMP180;3960;51.86894000;5.39848000;2023-05-14T02:34:02;101947.09;;;11.94
7830;BMP180;3960;51.86894000;5.39848000;2023-05-14T02:36:28;101937.44;;;11.86
7830;BMP180;3960;51.86894000;5.39848000;2023-05-14T02:38:53;101940.50;;;11.84
7830;BMP180;3960;51.86894000;5.39848000;2023-05-14T02:41:18;101941.66;;;11.83
7830;BMP180;3960;51.86894000;5.39848000;2023-05-14T02:43:44;101926.91;;;11.77
7830;BMP180;3960;51.86894000;5.39848000;2023-05-14T02:46:09;101941.28;;;11.78
7830;BMP180;3960;51.86894000;5.39848000;2023-05-14T02:48:34;101935.44;;;11.72
7830;BMP180;3960;51.86894000;5.39848000;2023-05-14T02:51:01;101928.47;;;11.68
7830;BMP180;3960;51.86894000;5.39848000;2023-05-14T02:53:26;101939.72;;;11.70
7830;BMP180;3960;51.86894000;5.39848000;2023-05-14T02:55:51;101944.38;;;11.66
7830;BMP180;3960;51.86894000;5.39848000;2023-05-14T02:58:17;101949.81;;;11.66
7830;BMP180;3960;51.86894000;5.39848000;2023-05-14T03:00:43;101947.09;;;11.66
7830;BMP180;3960;51.86894000;5.39848000;2023-05-14T03:03:08;101946.69;;;11.64
7830;BMP180;3960;51.86894000;5.39848000;2023-05-14T03:05:33;101930.78;;;11.56
7830;BMP180;3960;51.86894000;5.39848000;2023-05-14T03:07:59;101941.63;;;11.59
7830;BMP180;3960;51.86894000;5.39848000;2023-05-14T03:10:25;101940.84;;;11.55
7830;BMP180;3960;51.86894000;5.39848000;2023-05-14T03:12:50;101936.97;;;11.53
7830;BMP180;3960;51.86894000;5.39848000;2023-05-14T03:15:16;101938.88;;;11.49
7830;BMP180;3960;51.86894000;5.39848000;2023-05-14T03:17:41;101939.63;;;11.49
7830;BMP180;3960;51.86894000;5.39848000;2023-05-14T03:20:06;101929.56;;;11.43
7830;BMP180;3960;51.86894000;5.39848000;2023-05-14T03:22:32;101925.69;;;11.44
7830;BMP180;3960;51.86894000;5.39848000;2023-05-14T03:24:57;101934.97;;;11.43
7830;BMP180;3960;51.86894000;5.39848000;2023-05-14T03:27:22;101933.81;;;11.40
7830;BMP180;3960;51.86894000;5.39848000;2023-05-14T03:29:48;101926.44;;;11.37
7830;BMP180;3960;51.86894000;5.39848000;2023-05-14T03:32:13;101917.13;;;11.31
7830;BMP180;3960;51.86894000;5.39848000;2023-05-14T03:34:39;101934.94;;;11.32
7830;BMP180;3960;51.86894000;5.39848000;2023-05-14T03:37:04;101923.28;;;11.28
7830;BMP180;3960;51.86894000;5.39848000;2023-05-14T03:39:30;101924.09;;;11.29
7830;BMP180;3960;51.86894000;5.39848000;2023-05-14T03:41:55;101917.06;;;11.21
7830;BMP180;3960;51.86894000;5.39848000;2023-05-14T03:44:23;101924.47;;;11.24
7830;BMP180;3960;51.86894000;5.39848000;2023-05-14T03:46:48;101920.56;;;11.14
7830;BMP180;3960;51.86894000;5.39848000;2023-05-14T03:49:13;101903.88;;;11.09
7830;BMP180;3960;51.86894000;5.39848000;2023-05-14T03:51:38;101919.38;;;11.15
7830;BMP180;3960;51.86894000;5.39848000;2023-05-14T03:54:05;101912.00;;;11.09
7830;BMP180;3960;51.86894000;5.39848000;2023-05-14T03:56:30;101908.50;;;11.05
7830;BMP180;3960;51.86894000;5.39848000;2023-05-14T03:58:55;101911.59;;;11.03
7830;BMP180;3960;51.86894000;5.39848000;2023-05-14T04:01:21;101911.59;;;11.07
7830;BMP180;3960;51.86894000;5.39848000;2023-05-14T04:03:46;101909.25;;;11.02
7830;BMP180;3960;51.86894000;5.39848000;2023-05-14T04:06:11;101922.84;;;11.09
7830;BMP180;3960;51.86894000;5.39848000;2023-05-14T04:08:37;101927.47;;;11.08
7830;BMP180;3960;51.86894000;5.39848000;2023-05-14T04:11:02;101924.75;;;11.08
7830;BMP180;3960;51.86894000;5.39848000;2023-05-14T04:13:27;101923.22;;;11.07
7830;BMP180;3960;51.86894000;5.39848000;2023-05-14T04:15:52;101935.59;;;11.08
7830;BMP180;3960;51.86894000;5.39848000;2023-05-14T04:18:18;101933.69;;;11.09
7830;BMP180;3960;51.86894000;5.39848000;2023-05-14T04:20:43;101924.00;;;11.08
7830;BMP180;3960;51.86894000;5.39848000;2023-05-14T04:23:09;101928.28;;;11.09
7830;BMP180;3960;51.86894000;5.39848000;2023-05-14T04:25:34;101930.97;;;11.09
7830;BMP180;3960;51.86894000;5.39848000;2023-05-14T04:27:59;101927.88;;;11.10
7830;BMP180;3960;51.86894000;5.39848000;2023-05-14T04:30:25;101921.31;;;11.11
7830;BMP180;3960;51.86894000;5.39848000;2023-05-14T04:32:50;101918.59;;;11.11
7830;BMP180;3960;51.86894000;5.39848000;2023-05-14T04:35:15;101903.84;;;11.05
7830;BMP180;3960;51.86894000;5.39848000;2023-05-14T04:37:41;101920.16;;;11.16
7830;BMP180;3960;51.86894000;5.39848000;2023-05-14T04:40:08;101915.13;;;11.14
7830;BMP180;3960;51.86894000;5.39848000;2023-05-14T04:42:37;101919.38;;;11.19
7830;BMP180;3960;51.86894000;5.39848000;2023-05-14T04:45:03;101917.06;;;11.21
7830;BMP180;3960;51.86894000;5.39848000;2023-05-14T04:47:29;101920.97;;;11.23
7830;BMP180;3960;51.86894000;5.39848000;2023-05-14T04:49:55;101913.22;;;11.25
7830;BMP180;3960;51.86894000;5.39848000;2023-05-14T04:52:21;101921.38;;;11.29
7830;BMP180;3960;51.86894000;5.39848000;2023-05-14T04:54:47;101921.00;;;11.34
7830;BMP180;3960;51.86894000;5.39848000;2023-05-14T04:57:12;101909.75;;;11.32
7830;BMP180;3960;51.86894000;5.39848000;2023-05-14T04:59:37;101909.00;;;11.35
7830;BMP180;3960;51.86894000;5.39848000;2023-05-14T05:02:03;101908.59;;;11.36
7830;BMP180;3960;51.86894000;5.39848000;2023-05-14T05:04:28;101897.75;;;11.33
7830;BMP180;3960;51.86894000;5.39848000;2023-05-14T05:06:53;101910.94;;;11.45
7830;BMP180;3960;51.86894000;5.39848000;2023-05-14T05:09:18;101915.59;;;11.48
7830;BMP180;3960;51.86894000;5.39848000;2023-05-14T05:11:44;101917.91;;;11.46
7830;BMP180;3960;51.86894000;5.39848000;2023-05-14T05:14:09;101934.25;;;11.53
7830;BMP180;3960;51.86894000;5.39848000;2023-05-14T05:16:34;101936.22;;;11.63
7830;BMP180;3960;51.86894000;5.39848000;2023-05-14T05:19:00;101940.13;;;11.72
7830;BMP180;3960;51.86894000;5.39848000;2023-05-14T05:21:25;101937.03;;;11.84
7830;BMP180;3960;51.86894000;5.39848000;2023-05-14T05:23:50;101937.03;;;11.98
7830;BMP180;3960;51.86894000;5.39848000;2023-05-14T05:26:16;101929.28;;;12.07
7830;BMP180;3960;51.86894000;5.39848000;2023-05-14T05:28:41;101927.72;;;12.16
7830;BMP180;3960;51.86894000;5.39848000;2023-05-14T05:31:06;101940.53;;;12.26
7830;BMP180;3960;51.86894000;5.39848000;2023-05-14T05:33:33;101925.41;;;12.29
7830;BMP180;3960;51.86894000;5.39848000;2023-05-14T05:35:58;101933.53;;;12.42
7830;BMP180;3960;51.86894000;5.39848000;2023-05-14T05:38:24;101936.25;;;12.46
7830;BMP180;3960;51.86894000;5.39848000;2023-05-14T05:40:49;101949.03;;;12.56
7830;BMP180;3960;51.86894000;5.39848000;2023-05-14T05:43:15;101944.38;;;12.60
7830;BMP180;3960;51.86894000;5.39848000;2023-05-14T05:45:40;101946.69;;;12.72
7830;BMP180;3960;51.86894000;5.39848000;2023-05-14T05:48:06;101933.09;;;12.75
7830;BMP180;3960;51.86894000;5.39848000;2023-05-14T05:50:31;101935.00;;;12.82
7830;BMP180;3960;51.86894000;5.39848000;2023-05-14T05:52:56;101936.56;;;12.83
7830;BMP180;3960;51.86894000;5.39848000;2023-05-14T05:55:23;101930.75;;;12.81
7830;BMP180;3960;51.86894000;5.39848000;2023-05-14T05:57:49;101948.09;;;13.21
7830;BMP180;3960;51.86894000;5.39848000;2023-05-14T06:00:14;101947.31;;;13.24
7830;BMP180;3960;51.86894000;5.39848000;2023-05-14T06:02:41;101943.00;;;13.30
7830;BMP180;3960;51.86894000;5.39848000;2023-05-14T06:05:07;101939.66;;;13.74
7830;BMP180;3960;51.86894000;5.39848000;2023-05-14T06:07:33;101955.38;;;14.06
7830;BMP180;3960;51.86894000;5.39848000;2023-05-14T06:09:58;101956.91;;;14.58
7830;BMP180;3960;51.86894000;5.39848000;2023-05-14T06:12:24;101952.16;;;15.02
7830;BMP180;3960;51.86894000;5.39848000;2023-05-14T06:14:49;101953.69;;;15.36
7830;BMP180;3960;51.86894000;5.39848000;2023-05-14T06:17:15;101954.25;;;15.25
7830;BMP180;3960;51.86894000;5.39848000;2023-05-14T06:19:40;101950.97;;;15.63
7830;BMP180;3960;51.86894000;5.39848000;2023-05-14T06:22:06;101949.41;;;15.92
7830;BMP180;3960;51.86894000;5.39848000;2023-05-14T06:24:31;101949.50;;;15.85
7830;BMP180;3960;51.86894000;5.39848000;2023-05-14T06:26:57;101954.81;;;15.69
7830;BMP180;3960;51.86894000;5.39848000;2023-05-14T06:29:22;101951.44;;;16.10
7830;BMP180;3960;51.86894000;5.39848000;2023-05-14T06:31:47;101962.56;;;16.23
7830;BMP180;3960;51.86894000;5.39848000;2023-05-14T06:34:12;101963.88;;;16.61
7830;BMP180;3960;51.86894000;5.39848000;2023-05-14T06:36:38;101970.16;;;17.00
7830;BMP180;3960;51.86894000;5.39848000;2023-05-14T06:39:03;101969.06;;;17.17
7830;BMP180;3960;51.86894000;5.39848000;2023-05-14T06:41:28;101968.41;;;17.48
7830;BMP180;3960;51.86894000;5.39848000;2023-05-14T06:43:54;101965.28;;;17.30
7830;BMP180;3960;51.86894000;5.39848000;2023-05-14T06:46:20;101961.25;;;17.15
7830;BMP180;3960;51.86894000;5.39848000;2023-05-14T06:48:45;101973.72;;;17.39
7830;BMP180;3960;51.86894000;5.39848000;2023-05-14T06:51:10;101964.34;;;17.17
7830;BMP180;3960;51.86894000;5.39848000;2023-05-14T06:53:37;101967.91;;;16.95
7830;BMP180;3960;51.86894000;5.39848000;2023-05-14T06:56:02;101959.22;;;17.00
7830;BMP180;3960;51.86894000;5.39848000;2023-05-14T06:58:28;101951.06;;;16.77
7830;BMP180;3960;51.86894000;5.39848000;2023-05-14T07:00:53;101957.94;;;16.66
7830;BMP180;3960;51.86894000;5.39848000;2023-05-14T07:03:18;101962.97;;;16.67
7830;BMP180;3960;51.86894000;5.39848000;2023-05-14T07:05:44;101958.09;;;16.97
7830;BMP180;3960;51.86894000;5.39848000;2023-05-14T07:08:10;101945.25;;;16.75
7830;BMP180;3960;51.86894000;5.39848000;2023-05-14T07:10:36;101959.22;;;16.81
7830;BMP180;3960;51.86894000;5.39848000;2023-05-14T07:13:01;101957.56;;;16.64
7830;BMP180;3960;51.86894000;5.39848000;2023-05-14T07:15:27;101951.69;;;17.23
7830;BMP180;3960;51.86894000;5.39848000;2023-05-14T07:17:52;101948.84;;;17.65
7830;BMP180;3960;51.86894000;5.39848000;2023-05-14T07:20:18;101948.81;;;18.32
7830;BMP180;3960;51.86894000;5.39848000;2023-05-14T07:22:43;101937.13;;;18.89
7830;BMP180;3960;51.86894000;5.39848000;2023-05-14T07:25:08;101941.88;;;19.29
7830;BMP180;3960;51.86894000;5.39848000;2023-05-14T07:27:34;101949.13;;;19.23
7830;BMP180;3960;51.86894000;5.39848000;2023-05-14T07:29:59;101925.41;;;19.41
7830;BMP180;3960;51.86894000;5.39848000;2023-05-14T07:32:24;101946.75;;;19.99
7830;BMP180;3960;51.86894000;5.39848000;2023-05-14T07:34:50;101947.50;;;20.12
7830;BMP180;3960;51.86894000;5.39848000;2023-05-14T07:37:15;101948.31;;;20.00
7830;BMP180;3960;51.86894000;5.39848000;2023-05-14T07:39:40;101946.19;;;19.67
7830;BMP180;3960;51.86894000;5.39848000;2023-05-14T07:42:06;101948.06;;;19.58
7830;BMP180;3960;51.86894000;5.39848000;2023-05-14T07:44:31;101939.25;;;19.63
7830;BMP180;3960;51.86894000;5.39848000;2023-05-14T07:46:56;101926.06;;;19.82
7830;BMP180;3960;51.86894000;5.39848000;2023-05-14T07:49:22;101941.47;;;19.92
7830;BMP180;3960;51.86894000;5.39848000;2023-05-14T07:51:47;101931.41;;;20.36
7830;BMP180;3960;51.86894000;5.39848000;2023-05-14T07:54:12;101928.44;;;20.30
7830;BMP180;3960;51.86894000;5.39848000;2023-05-14T07:56:38;101924.88;;;20.76
7830;BMP180;3960;51.86894000;5.39848000;2023-05-14T07:59:03;101932.72;;;20.31
7830;BMP180;3960;51.86894000;5.39848000;2023-05-14T08:01:28;101923.50;;;20.13
7830;BMP180;3960;51.86894000;5.39848000;2023-05-14T08:03:53;101925.03;;;20.26
7830;BMP180;3960;51.86894000;5.39848000;2023-05-14T08:06:19;101932.31;;;20.20
7830;BMP180;3960;51.86894000;5.39848000;2023-05-14T08:08:45;101931.09;;;20.89
7830;BMP180;3960;51.86894000;5.39848000;2023-05-14T08:11:11;101938.59;;;20.88
7830;BMP180;3960;51.86894000;5.39848000;2023-05-14T08:13:36;101935.78;;;20.67
7830;BMP180;3960;51.86894000;5.39848000;2023-05-14T08:16:01;101935.63;;;20.49
7830;BMP180;3960;51.86894000;5.39848000;2023-05-14T08:18:27;101934.50;;;20.25
7830;BMP180;3960;51.86894000;5.39848000;2023-05-14T08:20:52;101940.75;;;20.38
7830;BMP180;3960;51.86894000;5.39848000;2023-05-14T08:23:17;101941.06;;;20.40
7830;BMP180;3960;51.86894000;5.39848000;2023-05-14T08:25:42;101943.38;;;21.18
7830;BMP180;3960;51.86894000;5.39848000;2023-05-14T08:28:08;101921.84;;;21.56
7830;BMP180;3960;51.86894000;5.39848000;2023-05-14T08:30:33;101932.13;;;22.03
7830;BMP180;3960;51.86894000;5.39848000;2023-05-14T08:32:58;101934.69;;;22.55
7830;BMP180;3960;51.86894000;5.39848000;2023-05-14T08:35:24;101937.88;;;22.89
7830;BMP180;3960;51.86894000;5.39848000;2023-05-14T08:37:49;101931.88;;;23.27
7830;BMP180;3960;51.86894000;5.39848000;2023-05-14T08:40:16;101930.41;;;23.49
7830;BMP180;3960;51.86894000;5.39848000;2023-05-14T08:42:42;101941.88;;;23.65
7830;BMP180;3960;51.86894000;5.39848000;2023-05-14T08:45:19;101925.97;;;23.84
7830;BMP180;3960;51.86894000;5.39848000;2023-05-14T08:47:49;101941.88;;;23.74
7830;BMP180;3960;51.86894000;5.39848000;2023-05-14T08:50:16;101932.41;;;23.90
7830;BMP180;3960;51.86894000;5.39848000;2023-05-14T08:52:41;101932.38;;;23.99
7830;BMP180;3960;51.86894000;5.39848000;2023-05-14T08:55:07;101928.66;;;24.25
7830;BMP180;3960;51.86894000;5.39848000;2023-05-14T08:57:34;101907.16;;;23.97
7830;BMP180;3960;51.86894000;5.39848000;2023-05-14T09:00:00;101921.31;;;23.99
7830;BMP180;3960;51.86894000;5.39848000;2023-05-14T09:02:28;101914.50;;;24.23
7830;BMP180;3960;51.86894000;5.39848000;2023-05-14T09:04:56;101913.13;;;24.65
7830;BMP180;3960;51.86894000;5.39848000;2023-05-14T09:07:22;101921.75;;;24.82
7830;BMP180;3960;51.86894000;5.39848000;2023-05-14T09:09:48;101913.44;;;24.82
7830;BMP180;3960;51.86894000;5.39848000;2023-05-14T09:12:13;101912.56;;;24.76
7830;BMP180;3960;51.86894000;5.39848000;2023-05-14T09:14:38;101895.66;;;24.88
7830;BMP180;3960;51.86894000;5.39848000;2023-05-14T09:17:04;101899.72;;;25.16
7830;BMP180;3960;51.86894000;5.39848000;2023-05-14T09:19:29;101898.00;;;25.18
7830;BMP180;3960;51.86894000;5.39848000;2023-05-14T09:21:56;101897.38;;;25.43
7830;BMP180;3960;51.86894000;5.39848000;2023-05-14T09:24:25;101904.00;;;25.80
7830;BMP180;3960;51.86894000;5.39848000;2023-05-14T09:26:55;101891.97;;;26.03
7830;BMP180;3960;51.86894000;5.39848000;2023-05-14T09:29:24;101895.38;;;26.12
7830;BMP180;3960;51.86894000;5.39848000;2023-05-14T09:31:50;101884.69;;;26.25
7830;BMP180;3960;51.86894000;5.39848000;2023-05-14T09:34:23;101893.72;;;26.40
7830;BMP180;3960;51.86894000;5.39848000;2023-05-14T09:36:49;101883.78;;;26.54
7830;BMP180;3960;51.86894000;5.39848000;2023-05-14T09:39:14;101875.22;;;26.82
7830;BMP180;3960;51.86894000;5.39848000;2023-05-14T09:41:41;101883.78;;;26.79
7830;BMP180;3960;51.86894000;5.39848000;2023-05-14T09:44:06;101890.25;;;26.96
7830;BMP180;3960;51.86894000;5.39848000;2023-05-14T09:46:31;101883.44;;;27.22
7830;BMP180;3960;51.86894000;5.39848000;2023-05-14T09:48:57;101871.88;;;27.34
7830;BMP180;3960;51.86894000;5.39848000;2023-05-14T09:51:22;101876.84;;;27.56
7830;BMP180;3960;51.86894000;5.39848000;2023-05-14T09:53:50;101874.19;;;27.72
7830;BMP180;3960;51.86894000;5.39848000;2023-05-14T09:56:16;101858.53;;;27.80
7830;BMP180;3960;51.86894000;5.39848000;2023-05-14T09:58:41;101867.25;;;28.04
7830;BMP180;3960;51.86894000;5.39848000;2023-05-14T10:01:07;101852.97;;;28.33
7830;BMP180;3960;51.86894000;5.39848000;2023-05-14T10:03:32;101855.28;;;28.51
7830;BMP180;3960;51.86894000;5.39848000;2023-05-14T10:06:01;101864.41;;;28.62
7830;BMP180;3960;51.86894000;5.39848000;2023-05-14T10:08:32;101855.28;;;28.56
7830;BMP180;3960;51.86894000;5.39848000;2023-05-14T10:11:01;101860.59;;;28.49
7830;BMP180;3960;51.86894000;5.39848000;2023-05-14T10:13:33;101846.88;;;28.34
7830;BMP180;3960;51.86894000;5.39848000;2023-05-14T10:18:30;101835.66;;;28.12
7830;BMP180;3960;51.86894000;5.39848000;2023-05-14T10:21:03;101842.00;;;28.18
7830;BMP180;3960;51.86894000;5.39848000;2023-05-14T10:23:29;101847.94;;;28.48
7830;BMP180;3960;51.86894000;5.39848000;2023-05-14T10:25:56;101837.81;;;28.67
7830;BMP180;3960;51.86894000;5.39848000;2023-05-14T10:28:22;101847.75;;;28.84
7830;BMP180;3960;51.86894000;5.39848000;2023-05-14T10:30:48;101834.53;;;28.57
7830;BMP180;3960;51.86894000;5.39848000;2023-05-14T10:33:14;101841.31;;;28.34
7830;BMP180;3960;51.86894000;5.39848000;2023-05-14T10:35:59;101833.59;;;28.07
7830;BMP180;3960;51.86894000;5.39848000;2023-05-14T10:38:27;101835.13;;;28.03
7830;BMP180;3960;51.86894000;5.39848000;2023-05-14T10:40:55;101822.47;;;28.13
7830;BMP180;3960;51.86894000;5.39848000;2023-05-14T10:43:24;101834.50;;;28.52
7830;BMP180;3960;51.86894000;5.39848000;2023-05-14T10:45:50;101814.00;;;28.77
7830;BMP180;3960;51.86894000;5.39848000;2023-05-14T10:48:15;101821.13;;;29.10
7830;BMP180;3960;51.86894000;5.39848000;2023-05-14T10:50:41;101807.66;;;29.25
7830;BMP180;3960;51.86894000;5.39848000;2023-05-14T10:53:10;101814.50;;;29.46
7830;BMP180;3960;51.86894000;5.39848000;2023-05-14T10:55:37;101819.31;;;29.29
7830;BMP180;3960;51.86894000;5.39848000;2023-05-14T10:58:03;101817.31;;;29.08
7830;BMP180;3960;51.86894000;5.39848000;2023-05-14T11:00:28;101813.78;;;28.91
7830;BMP180;3960;51.86894000;5.39848000;2023-05-14T11:02:54;101798.78;;;28.72
7830;BMP180;3960;51.86894000;5.39848000;2023-05-14T11:05:21;101809.66;;;28.48
7830;BMP180;3960;51.86894000;5.39848000;2023-05-14T11:07:48;101805.88;;;28.73
7830;BMP180;3960;51.86894000;5.39848000;2023-05-14T11:10:15;101800.34;;;28.95
7830;BMP180;3960;51.86894000;5.39848000;2023-05-14T11:12:42;101793.22;;;29.16
7830;BMP180;3960;51.86894000;5.39848000;2023-05-14T11:15:13;101800.81;;;29.37
7830;BMP180;3960;51.86894000;5.39848000;2023-05-14T11:17:40;101788.41;;;29.27
7830;BMP180;3960;51.86894000;5.39848000;2023-05-14T11:20:06;101793.72;;;29.31
7830;BMP180;3960;51.86894000;5.39848000;2023-05-14T11:22:33;101793.47;;;29.29
7830;BMP180;3960;51.86894000;5.39848000;2023-05-14T11:24:58;101793.47;;;29.23
7830;BMP180;3960;51.86894000;5.39848000;2023-05-14T11:27:24;101782.78;;;29.33
7830;BMP180;3960;51.86894000;5.39848000;2023-05-14T11:29:50;101788.91;;;29.37
7830;BMP180;3960;51.86894000;5.39848000;2023-05-14T11:32:17;101778.66;;;29.66
7830;BMP180;3960;51.86894000;5.39848000;2023-05-14T11:34:43;101786.00;;;29.69
7830;BMP180;3960;51.86894000;5.39848000;2023-05-14T11:37:09;101781.84;;;29.87
7830;BMP180;3960;51.86894000;5.39848000;2023-05-14T11:39:36;101767.22;;;29.70
7830;BMP180;3960;51.86894000;5.39848000;2023-05-14T11:42:03;101763.94;;;29.60
7830;BMP180;3960;51.86894000;5.39848000;2023-05-14T11:44:32;101766.50;;;29.58
7830;BMP180;3960;51.86894000;5.39848000;2023-05-14T11:46:58;101772.31;;;29.60
7830;BMP180;3960;51.86894000;5.39848000;2023-05-14T11:49:24;101768.94;;;29.78
7830;BMP180;3960;51.86894000;5.39848000;2023-05-14T11:51:56;101761.22;;;30.06
7830;BMP180;3960;51.86894000;5.39848000;2023-05-14T11:54:21;101758.31;;;30.23
7830;BMP180;3960;51.86894000;5.39848000;2023-05-14T11:56:50;101761.53;;;30.37
7830;BMP180;3960;51.86894000;5.39848000;2023-05-14T11:59:16;101762.47;;;30.45
7830;BMP180;3960;51.86894000;5.39848000;2023-05-14T12:01:43;101751.25;;;30.56
7830;BMP180;3960;51.86894000;5.39848000;2023-05-14T12:04:08;101749.72;;;30.55
7830;BMP180;3960;51.86894000;5.39848000;2023-05-14T12:06:33;101749.91;;;30.63
7830;BMP180;3960;51.86894000;5.39848000;2023-05-14T12:08:59;101746.00;;;30.71
7830;BMP180;3960;51.86894000;5.39848000;2023-05-14T12:11:29;101746.63;;;30.59
7830;BMP180;3960;51.86894000;5.39848000;2023-05-14T12:13:54;101744.25;;;29.99
7830;BMP180;3960;51.86894000;5.39848000;2023-05-14T12:16:20;101729.19;;;29.61
7830;BMP180;3960;51.86894000;5.39848000;2023-05-14T12:18:45;101738.78;;;29.71
7830;BMP180;3960;51.86894000;5.39848000;2023-05-14T12:21:10;101741.53;;;29.77
7830;BMP180;3960;51.86894000;5.39848000;2023-05-14T12:23:37;101719.22;;;29.71
7830;BMP180;3960;51.86894000;5.39848000;2023-05-14T12:26:04;101744.13;;;29.69
7830;BMP180;3960;51.86894000;5.39848000;2023-05-14T12:28:31;101737.75;;;29.74